Portada
METAR-TAF:

METAR-TAF

Aeroports :

Derry, Irlanda del Nord

latitud: 55-03N, longitud: 007-09W, altitud: 9 m

Observació

L'informe es va fer fa 6 hores i 38 minuts, a les 16:50 UTC
Vent 9 kt del Est/Sud-Est
Temperatura 14°C
Humitat 58%
Pressió 1023 hPa
Visibilitat 10 km o més
Núvols disperses a una alçada de 3900 ft

METAR: EGAE 211650Z 12009KT 9999 SCT039 14/06 Q1023

Hora: 00:28 (23:28 UTC)

Pronòstic

L'informe es va fer fa 9 hores i 30 minuts, a les 13:58 UTC
Pronòstic vàlid del 21 a les 15 UTC al 21 a les 18 UTC
Vent 9 kt del Est/Sud-Est
Visibilitat 10 km o més
Núvols disperses a una alçada de 3500 ft

TAF: EGAE 211358Z 2115/2118 12009KT 9999 SCT035

Observacions i pronòstics meteorològics de més de 4000 aeroports (METAR i TAF).

Les estacions disponibles són els punts grocs i vermells al mapa.

Posi el ratolí al punt desitjat per veure el nom de l'estació.

Feu clic per veure les observacions i els pronòstics meteorològics.

Per canviar el mapa: feu clic els botons verds amb una creu de color negre per apropar; al botó verd amb un guió per allunyar la imatge; o en les fletxes verdes per a mapes adjacents.


METAR-TAF: